Time;durP1;ratioP1;P1;durP2;ratioP2;P2;SDS_P1;SDS_P2;PMS_P1;PMS_P2;Temp;Humidity;BMP_temperature;BMP_pressure;BME280_temperature;BME280_humidity;BME280_pressure;Samples;Min_cycle;Max_cycle;Signal;HPM_P1;HPM_P2
2022/05/24 02:59:24;;;;;;;11.93;11.43;;;16.60;99.90;;;;;;6127288;23;20420;31
2022/05/24 03:01:51;;;;;;;13.00;12.47;;;16.50;99.90;;;;;;4943169;29;20478;-77
2022/05/24 03:04:17;;;;;;;12.20;11.53;;;16.50;99.90;;;;;;4952297;29;20804;-76
2022/05/24 03:09:35;;;;;;;12.20;11.70;;;16.40;99.90;;;;;;4952287;29;20431;-77
2022/05/24 03:14:48;;;;;;;12.40;11.80;;;16.50;99.90;;;;;;4952370;29;20423;-76
2022/05/24 03:17:16;;;;;;;12.47;11.70;;;16.40;99.90;;;;;;4952050;29;20807;-77
2022/05/24 03:19:42;;;;;;;12.60;12.00;;;16.50;99.90;;;;;;4952501;29;20901;-77
2022/05/24 03:22:10;;;;;;;12.37;11.87;;;16.50;99.90;;;;;;4952466;29;20444;-78
2022/05/24 03:24:37;;;;;;;12.57;12.03;;;16.60;99.90;;;;;;4952355;29;20457;-78
2022/05/24 03:27:08;;;;;;;13.10;12.47;;;16.50;99.90;;;;;;4952191;29;20459;-78
2022/05/24 03:29:34;;;;;;;13.77;12.77;;;16.60;99.90;;;;;;4954831;28;20460;-77
2022/05/24 03:32:03;;;;;;;11.97;11.57;;;16.60;99.90;;;;;;4955904;29;20496;-78
2022/05/24 03:34:29;;;;;;;12.57;12.17;;;16.70;99.90;;;;;;4955929;29;20531;-77
2022/05/24 03:36:56;;;;;;;12.60;12.00;;;16.70;99.90;;;;;;4956146;29;20767;-75
2022/05/24 03:39:22;;;;;;;12.63;12.07;;;16.80;99.90;;;;;;4955695;29;20996;-75
2022/05/24 03:41:49;;;;;;;12.90;12.30;;;16.80;99.90;;;;;;4956039;29;20507;-76
2022/05/24 03:44:16;;;;;;;14.37;13.57;;;16.90;99.90;;;;;;4955803;29;20457;-76
2022/05/24 03:46:43;;;;;;;14.13;13.30;;;16.90;99.90;;;;;;4957147;29;20834;-78
2022/05/24 03:49:11;;;;;;;12.53;12.00;;;16.90;99.90;;;;;;4956801;29;21021;-78
2022/05/24 03:51:38;;;;;;;13.67;12.97;;;17.00;99.90;;;;;;4956421;29;20488;-76
2022/05/24 03:54:06;;;;;;;13.53;12.63;;;17.00;99.90;;;;;;4957455;29;20453;-76
2022/05/24 03:56:33;;;;;;;13.73;13.10;;;17.00;99.90;;;;;;4956304;29;20463;-79
2022/05/24 03:58:59;;;;;;;13.93;13.23;;;17.00;99.90;;;;;;4964088;28;20467;-78
2022/05/24 04:01:26;;;;;;;14.73;13.93;;;16.90;99.90;;;;;;4974630;28;20491;-78
2022/05/24 04:03:53;;;;;;;14.00;13.40;;;17.00;99.90;;;;;;4974640;28;20451;-76
2022/05/24 04:06:21;;;;;;;13.53;12.60;;;17.00;99.90;;;;;;4975065;28;20451;-77
2022/05/24 04:08:48;;;;;;;14.27;13.47;;;17.00;99.90;;;;;;4966808;28;20467;-77
2022/05/24 04:11:14;;;;;;;14.60;13.80;;;17.10;99.90;;;;;;4972290;28;20996;-80
2022/05/24 04:13:42;;;;;;;14.40;13.70;;;17.10;99.90;;;;;;4974770;28;20456;-80
2022/05/24 04:16:10;;;;;;;13.80;12.90;;;17.10;99.90;;;;;;4974971;28;20459;-80
2022/05/24 04:18:37;;;;;;;14.83;14.07;;;17.10;99.90;;;;;;4974872;28;20447;-80
2022/05/24 04:21:04;;;;;;;13.53;12.90;;;17.10;99.90;;;;;;4975069;28;21005;-81
2022/05/24 04:23:32;;;;;;;15.87;14.63;;;17.10;99.90;;;;;;4974861;28;20487;-80
2022/05/24 04:25:58;;;;;;;14.23;13.53;;;17.10;99.90;;;;;;4974271;28;20873;-79
2022/05/24 04:28:25;;;;;;;15.10;13.67;;;17.20;99.90;;;;;;4974143;28;20447;-79
2022/05/24 04:30:52;;;;;;;13.47;12.90;;;17.10;99.90;;;;;;4974294;28;20458;-79
2022/05/24 04:33:19;;;;;;;13.87;13.20;;;17.10;99.90;;;;;;4975102;28;20543;-79
2022/05/24 04:35:47;;;;;;;14.00;13.03;;;17.10;99.90;;;;;;4978497;28;20452;-80
2022/05/24 04:38:13;;;;;;;14.00;13.37;;;17.30;99.90;;;;;;4979135;28;20830;-81
2022/05/24 04:43:26;;;;;;;14.10;13.10;;;17.40;99.90;;;;;;4976175;28;20447;-78
2022/05/24 04:45:53;;;;;;;14.20;13.50;;;17.50;99.90;;;;;;4975464;28;20460;-79
2022/05/24 04:48:20;;;;;;;14.20;13.60;;;17.50;99.90;;;;;;4977165;28;20813;-79
2022/05/24 04:50:48;;;;;;;12.97;12.47;;;17.40;99.90;;;;;;4977756;28;20823;-79
2022/05/24 04:53:15;;;;;;;13.10;12.43;;;17.40;99.90;;;;;;4976361;28;20471;-76
2022/05/24 04:55:43;;;;;;;13.10;12.33;;;17.40;99.90;;;;;;4977059;28;20672;-83
2022/05/24 04:58:11;;;;;;;13.90;13.00;;;17.40;99.90;;;;;;4979054;28;20459;-77
2022/05/24 05:00:38;;;;;;;13.60;12.43;;;17.40;99.90;;;;;;4976621;28;20483;-78
2022/05/24 05:03:08;;;;;;;12.83;12.00;;;17.40;99.90;;;;;;4978364;28;20968;-83
2022/05/24 05:05:35;;;;;;;13.37;12.57;;;17.40;99.90;;;;;;4978158;28;20949;-83
2022/05/24 05:08:02;;;;;;;13.57;12.80;;;17.50;99.90;;;;;;4976016;28;20471;-79
2022/05/24 05:10:29;;;;;;;14.07;13.23;;;17.50;99.90;;;;;;4975549;28;20456;-78
2022/05/24 05:12:57;;;;;;;12.87;12.13;;;17.60;99.90;;;;;;4974955;28;20491;-78
2022/05/24 05:15:23;;;;;;;15.03;13.93;;;17.70;99.90;;;;;;4977314;28;20536;-79
2022/05/24 05:17:51;;;;;;;13.73;12.70;;;17.80;99.90;;;;;;4977117;28;20455;-78
2022/05/24 05:20:18;;;;;;;13.07;12.20;;;18.00;99.90;;;;;;4979408;28;20455;-78
2022/05/24 05:22:44;;;;;;;14.00;12.73;;;18.10;99.90;;;;;;4978660;28;20451;-79
2022/05/24 05:25:11;;;;;;;15.10;13.70;;;18.20;99.90;;;;;;4977311;28;21007;-78
2022/05/24 05:27:38;;;;;;;16.27;14.97;;;18.20;99.90;;;;;;4974575;28;20794;-80
2022/05/24 05:32:52;;;;;;;15.13;13.70;;;18.20;99.90;;;;;;4977154;28;20487;-78
2022/05/24 05:35:19;;;;;;;13.80;12.80;;;18.30;99.90;;;;;;4977344;28;20458;-80
2022/05/24 05:37:46;;;;;;;12.70;12.10;;;18.40;99.90;;;;;;4976968;28;20502;-80
2022/05/24 05:40:14;;;;;;;12.50;11.80;;;18.50;99.90;;;;;;4975602;28;20459;-81
2022/05/24 05:42:41;;;;;;;12.80;11.90;;;18.80;99.90;;;;;;4975390;28;20506;-80
2022/05/24 05:45:12;;;;;;;12.53;11.57;;;18.90;99.90;;;;;;4977047;28;20456;-79
2022/05/24 05:47:39;;;;;;;11.80;11.00;;;19.10;99.90;;;;;;4977375;28;20459;-79
2022/05/24 05:50:07;;;;;;;12.30;11.70;;;19.30;99.90;;;;;;4975312;28;20451;-80
2022/05/24 05:52:34;;;;;;;12.67;11.73;;;19.50;99.90;;;;;;4976930;28;21072;-79
2022/05/24 05:55:00;;;;;;;11.97;11.37;;;19.80;99.90;;;;;;4977999;28;20456;-84
2022/05/24 05:57:27;;;;;;;13.00;12.37;;;20.10;99.90;;;;;;4980244;28;20463;-81
2022/05/24 05:59:54;;;;;;;12.70;11.90;;;20.40;99.90;;;;;;4976105;28;20495;-82
2022/05/24 06:02:22;;;;;;;13.10;12.30;;;20.40;99.90;;;;;;4978556;28;20455;-84
2022/05/24 06:04:49;;;;;;;12.43;11.83;;;20.50;99.90;;;;;;4976646;28;20527;-83
2022/05/24 06:07:15;;;;;;;13.50;12.60;;;20.40;99.90;;;;;;4979267;28;20488;-83
2022/05/24 06:09:42;;;;;;;12.50;12.00;;;20.20;99.90;;;;;;4976660;28;20455;-81
2022/05/24 06:12:10;;;;;;;12.73;11.90;;;20.10;99.90;;;;;;4975803;28;20491;-82
2022/05/24 06:14:37;;;;;;;11.70;11.20;;;20.30;99.90;;;;;;4977058;28;20451;-81
2022/05/24 06:17:04;;;;;;;12.83;12.03;;;20.80;99.90;;;;;;4976384;28;20459;-80
2022/05/24 06:19:32;;;;;;;12.47;11.50;;;21.70;99.90;;;;;;4977138;28;20844;-79
2022/05/24 06:21:58;;;;;;;12.10;11.60;;;22.60;99.90;;;;;;4976811;28;20452;-80
2022/05/24 06:24:25;;;;;;;12.27;11.67;;;23.10;99.90;;;;;;4974361;28;20467;-79
2022/05/24 06:26:52;;;;;;;13.37;12.57;;;23.10;99.90;;;;;;4977702;28;20451;-78
2022/05/24 06:29:19;;;;;;;12.57;11.97;;;23.00;99.90;;;;;;4972879;28;20456;-79
2022/05/24 06:31:46;;;;;;;13.30;12.40;;;22.80;99.90;;;;;;4977016;28;20514;-78
2022/05/24 06:34:12;;;;;;;13.97;13.10;;;22.30;99.90;;;;;;4977710;28;20788;-80
2022/05/24 06:36:40;;;;;;;13.17;12.40;;;21.70;99.90;;;;;;4976520;28;20458;-80
2022/05/24 06:39:07;;;;;;;12.53;11.93;;;21.50;99.90;;;;;;4974525;28;20471;-79
2022/05/24 06:41:34;;;;;;;11.87;11.37;;;21.40;99.90;;;;;;4973625;28;20459;-80
2022/05/24 06:44:01;;;;;;;11.60;11.10;;;21.50;99.90;;;;;;4972326;28;20543;-80
2022/05/24 06:46:27;;;;;;;12.87;11.80;;;21.50;99.90;;;;;;4973003;28;20463;-80
2022/05/24 06:48:54;;;;;;;12.73;11.97;;;21.50;99.90;;;;;;4973274;28;20452;-80
2022/05/24 06:51:22;;;;;;;12.23;11.83;;;21.40;99.90;;;;;;4973699;28;20451;-79
2022/05/24 06:53:51;;;;;;;12.10;11.40;;;21.50;99.90;;;;;;4974069;28;20949;-79
2022/05/24 06:56:18;;;;;;;11.50;10.90;;;21.50;99.90;;;;;;4970811;28;20808;-79
2022/05/24 06:58:45;;;;;;;12.47;11.33;;;21.60;99.90;;;;;;4972674;28;20479;-79
2022/05/24 07:03:58;;;;;;;12.17;11.67;;;21.70;99.90;;;;;;4972040;28;20518;-78
2022/05/24 07:06:25;;;;;;;11.80;11.20;;;21.60;99.90;;;;;;4972574;28;20498;-79
2022/05/24 07:08:53;;;;;;;11.47;10.97;;;21.60;99.90;;;;;;4972502;28;20456;-79
2022/05/24 07:11:22;;;;;;;11.10;10.60;;;21.50;99.90;;;;;;4973125;28;20455;-79
2022/05/24 07:13:49;;;;;;;10.83;10.43;;;21.10;99.90;;;;;;4973180;28;20491;-78
2022/05/24 07:16:15;;;;;;;11.17;10.60;;;20.60;99.90;;;;;;4973013;28;20503;-77
2022/05/24 07:19:26;;;;;;;18.20;17.10;;;19.50;99.90;;;;;;4972694;28;20452;-71
2022/05/24 07:21:53;;;;;;;36.87;34.83;;;18.10;99.90;;;;;;4970524;28;20459;-72
2022/05/24 07:24:21;;;;;;;37.10;35.20;;;16.50;99.90;;;;;;4970612;28;20459;-72
2022/05/24 07:26:48;;;;;;;37.17;35.17;;;15.50;99.90;;;;;;4971169;28;20455;-74
2022/05/24 07:29:14;;;;;;;36.77;34.90;;;15.20;99.90;;;;;;4971021;28;20451;-72
2022/05/24 07:31:41;;;;;;;35.00;33.20;;;14.90;99.90;;;;;;4970968;28;20482;-71
2022/05/24 07:34:08;;;;;;;36.03;34.13;;;14.80;99.90;;;;;;4971053;28;20474;-72
2022/05/24 07:36:34;;;;;;;36.97;34.97;;;14.80;99.90;;;;;;4971352;28;20965;-72
2022/05/24 07:39:01;;;;;;;35.53;33.73;;;14.70;99.90;;;;;;4971059;28;20456;-72
2022/05/24 07:46:57;;;;;;;37.03;34.93;;;15.00;99.90;;;;;;4970753;28;20928;-71
2022/05/24 07:49:24;;;;;;;35.87;33.83;;;15.10;99.90;;;;;;4970806;28;20462;-72
2022/05/24 07:51:51;;;;;;;35.63;33.90;;;15.40;99.90;;;;;;4957311;28;20539;-71
2022/05/24 07:54:17;;;;;;;35.77;34.17;;;15.70;99.90;;;;;;4966915;28;20441;-70
2022/05/24 07:56:45;;;;;;;35.27;33.60;;;15.80;99.90;;;;;;4951514;29;20463;-70
2022/05/24 07:59:12;;;;;;;33.83;32.33;;;15.90;99.90;;;;;;4960116;28;20526;-70
2022/05/24 08:01:40;;;;;;;31.77;30.30;;;15.80;99.90;;;;;;4970446;28;20487;-70
2022/05/24 08:04:07;;;;;;;31.73;29.80;;;15.90;99.90;;;;;;4970648;28;20946;-70
2022/05/24 08:06:33;;;;;;;30.77;29.47;;;15.80;99.90;;;;;;4968645;28;20474;-70
2022/05/24 08:09:00;;;;;;;26.00;25.00;;;16.30;99.90;;;;;;4951405;28;20444;-71
2022/05/24 08:11:27;;;;;;;20.70;19.80;;;16.60;99.90;;;;;;4951482;29;20488;-72
2022/05/24 08:13:58;;;;;;;19.90;19.10;;;17.10;99.90;;;;;;4950513;29;21072;-71
2022/05/24 08:16:25;;;;;;;16.03;15.13;;;18.20;99.90;;;;;;4953481;28;20496;-70
2022/05/24 08:18:51;;;;;;;15.90;15.23;;;18.70;99.90;;;;;;4955153;29;20460;-71
2022/05/24 08:21:18;;;;;;;14.70;14.20;;;19.40;99.90;;;;;;4955148;29;20508;-71
2022/05/24 08:23:45;;;;;;;15.10;14.50;;;19.60;99.90;;;;;;4955000;28;20452;-71
2022/05/24 08:26:12;;;;;;;13.70;13.30;;;19.70;99.90;;;;;;4974212;28;20752;-73
2022/05/24 08:28:41;;;;;;;14.27;13.67;;;19.80;99.90;;;;;;4974175;28;20514;-73
2022/05/24 08:31:09;;;;;;;13.37;12.77;;;19.70;99.90;;;;;;4974154;28;20510;-75
2022/05/24 08:33:37;;;;;;;13.60;13.13;;;20.00;99.90;;;;;;4974343;28;20886;-74
2022/05/24 08:36:04;;;;;;;13.80;13.30;;;19.90;99.90;;;;;;4974906;28;20525;-77
2022/05/24 08:38:31;;;;;;;13.60;13.10;;;20.00;99.90;;;;;;4974954;28;20476;-76
2022/05/24 08:41:04;;;;;;;12.97;12.47;;;19.80;99.90;;;;;;4980078;28;21001;-75
2022/05/24 08:43:58;;;;;;;13.37;12.67;;;19.70;99.90;;;;;;4976448;28;20526;-74
2022/05/24 08:49:18;;;;;;;12.90;12.40;;;19.70;99.90;;;;;;4974728;28;20803;-75
2022/05/24 08:51:48;;;;;;;12.60;12.10;;;19.70;99.90;;;;;;4977325;28;20456;-76
2022/05/24 08:54:17;;;;;;;13.00;12.57;;;20.00;99.90;;;;;;4972911;28;20914;-76
2022/05/24 08:56:47;;;;;;;13.03;12.53;;;20.00;99.90;;;;;;4973960;28;20460;-74
2022/05/24 08:59:18;;;;;;;11.80;11.50;;;20.30;99.90;;;;;;4973462;28;20596;-73
2022/05/24 09:01:47;;;;;;;12.37;11.87;;;20.20;99.90;;;;;;4973650;28;20487;-75
2022/05/24 09:04:14;;;;;;;11.97;11.50;;;20.50;99.90;;;;;;4973675;28;20497;-76
2022/05/24 09:06:46;;;;;;;13.30;12.67;;;21.00;99.90;;;;;;4973932;28;20447;-76
2022/05/24 09:09:25;;;;;;;12.40;12.00;;;21.00;99.90;;;;;;4974814;28;20459;-76
2022/05/24 09:12:03;;;;;;;11.70;11.30;;;21.00;99.90;;;;;;4973841;28;20462;-77
2022/05/24 09:14:40;;;;;;;12.90;12.20;;;21.10;99.90;;;;;;4974361;28;20460;-76
2022/05/24 09:17:19;;;;;;;12.50;12.10;;;21.40;99.90;;;;;;4974158;28;20865;-78
2022/05/24 09:19:46;;;;;;;12.20;11.60;;;21.40;99.90;;;;;;4974347;28;20451;-78
2022/05/24 09:22:13;;;;;;;11.47;10.97;;;21.70;99.90;;;;;;4974156;28;20489;-79
2022/05/24 09:24:43;;;;;;;12.10;11.60;;;21.70;98.90;;;;;;4974257;28;20454;-79
2022/05/24 09:27:17;;;;;;;12.20;11.80;;;21.80;99.50;;;;;;4974964;28;21150;-79
2022/05/24 09:29:57;;;;;;;12.30;11.90;;;22.30;98.30;;;;;;4973768;28;20455;-80
2022/05/24 09:32:31;;;;;;;11.80;11.40;;;22.80;97.40;;;;;;4974769;28;20463;-80
2022/05/24 09:35:06;;;;;;;11.90;11.50;;;23.20;96.50;;;;;;4974567;28;20497;-79
2022/05/24 09:37:33;;;;;;;11.50;11.10;;;23.60;94.30;;;;;;4974615;28;20454;-80
2022/05/24 09:40:02;;;;;;;12.20;11.80;;;23.90;93.90;;;;;;4974068;28;20455;-80
2022/05/24 09:42:31;;;;;;;11.70;11.20;;;24.20;94.10;;;;;;4974088;28;20510;-79
2022/05/24 09:45:00;;;;;;;11.50;11.10;;;24.60;91.20;;;;;;4973755;28;20456;-78
2022/05/24 09:47:31;;;;;;;12.03;11.63;;;24.40;91.50;;;;;;4973638;28;20456;-77
2022/05/24 09:50:21;;;;;;;11.93;11.53;;;24.20;92.50;;;;;;4973925;28;20547;-78
2022/05/24 09:53:10;;;;;;;11.83;11.43;;;24.90;90.70;;;;;;4974200;28;20484;-78
2022/05/24 09:55:41;;;;;;;12.20;11.80;;;25.90;86.50;;;;;;4973853;28;20440;-77
2022/05/24 09:58:20;;;;;;;13.23;12.53;;;26.00;82.10;;;;;;4973486;28;20946;-79
2022/05/24 10:00:52;;;;;;;11.33;10.83;;;26.00;81.50;;;;;;4973564;28;20486;-78
2022/05/24 10:03:25;;;;;;;11.93;11.53;;;25.80;82.60;;;;;;4973462;28;20451;-78
2022/05/24 10:05:59;;;;;;;12.10;11.50;;;25.10;82.30;;;;;;4973065;28;20490;-78
2022/05/24 10:08:26;;;;;;;12.10;11.70;;;24.80;83.90;;;;;;4973339;28;20459;-78
2022/05/24 10:10:57;;;;;;;11.70;11.30;;;24.10;84.60;;;;;;4972691;28;20487;-79
2022/05/24 10:13:38;;;;;;;11.47;11.07;;;23.80;86.50;;;;;;4972879;28;20558;-78
2022/05/24 10:16:17;;;;;;;11.90;11.50;;;24.80;82.10;;;;;;4973664;28;20458;-77
2022/05/24 10:18:58;;;;;;;12.20;11.80;;;25.60;78.20;;;;;;4973204;28;20459;-80
2022/05/24 10:21:31;;;;;;;12.43;12.00;;;27.30;76.30;;;;;;4972866;28;20459;-79
2022/05/24 10:24:06;;;;;;;12.37;11.97;;;28.00;70.70;;;;;;4972915;28;20965;-78
2022/05/24 10:26:47;;;;;;;13.37;12.87;;;28.00;70.70;;;;;;4972919;28;20459;-80
2022/05/24 10:29:22;;;;;;;12.73;12.33;;;29.00;67.20;;;;;;4972722;28;20546;-79
2022/05/24 10:31:55;;;;;;;12.20;11.80;;;28.40;66.30;;;;;;4973303;28;20491;-79
2022/05/24 10:40:23;;;;;;;11.90;11.50;;;27.50;63.90;;;;;;4972277;28;20849;-79
2022/05/24 10:43:06;;;;;;;12.20;11.50;;;26.60;64.30;;;;;;4973375;28;20455;-79
2022/05/24 10:48:34;;;;;;;12.93;12.30;;;27.10;63.70;;;;;;4972277;28;20493;-78
2022/05/24 10:51:10;;;;;;;12.70;12.20;;;27.00;64.20;;;;;;4972271;28;20459;-77
2022/05/24 10:53:42;;;;;;;12.47;12.07;;;26.50;65.50;;;;;;4971953;28;20491;-77
2022/05/24 10:56:18;;;;;;;12.50;12.00;;;26.50;64.10;;;;;;4971981;28;20448;-76
2022/05/24 10:58:46;;;;;;;11.50;11.20;;;25.50;66.50;;;;;;4971916;28;20475;-78
2022/05/24 11:01:24;;;;;;;11.20;10.90;;;24.90;69.90;;;;;;4971827;28;20483;-78
2022/05/24 11:03:55;;;;;;;11.90;11.50;;;24.80;69.50;;;;;;4972349;28;20459;-76
2022/05/24 11:06:30;;;;;;;11.83;11.33;;;25.30;68.40;;;;;;4971753;28;20452;-77
2022/05/24 11:09:03;;;;;;;12.03;11.60;;;25.60;68.90;;;;;;4974394;28;20443;-78
2022/05/24 11:11:35;;;;;;;13.00;12.60;;;26.20;68.00;;;;;;4973989;28;20477;-79
2022/05/24 11:14:11;;;;;;;12.23;11.70;;;26.40;64.70;;;;;;4972189;28;20492;-76
2022/05/24 11:16:41;;;;;;;12.53;12.07;;;26.70;64.50;;;;;;4973942;28;20451;-79
2022/05/24 11:19:11;;;;;;;11.77;11.27;;;26.90;63.20;;;;;;4972368;28;20659;-78
2022/05/24 11:21:42;;;;;;;11.40;11.00;;;27.60;62.30;;;;;;4971689;28;20510;-79
2022/05/24 11:24:14;;;;;;;11.60;11.17;;;27.90;61.90;;;;;;4971419;28;20452;-78
2022/05/24 11:26:48;;;;;;;11.40;11.10;;;28.10;62.00;;;;;;4971615;28;20543;-77
2022/05/24 11:29:19;;;;;;;11.90;11.50;;;28.50;59.70;;;;;;4971679;28;20455;-79
2022/05/24 11:31:48;;;;;;;12.27;11.67;;;27.90;59.60;;;;;;4971853;28;20452;-79
2022/05/24 11:34:21;;;;;;;12.20;11.80;;;28.20;59.30;;;;;;4972351;28;20542;-80
2022/05/24 11:37:02;;;;;;;12.47;12.00;;;29.10;57.50;;;;;;4972453;28;20451;-79
2022/05/24 11:39:32;;;;;;;12.80;12.20;;;28.90;58.00;;;;;;4971855;28;20482;-77
2022/05/24 11:42:19;;;;;;;12.30;11.80;;;28.70;57.30;;;;;;4971817;28;20451;-77
2022/05/24 11:44:46;;;;;;;11.60;11.20;;;26.90;61.10;;;;;;4971839;28;20454;-79
2022/05/24 11:47:47;;;;;;;12.13;11.73;;;26.80;62.70;;;;;;4971853;28;20510;-79
2022/05/24 11:50:39;;;;;;;12.33;11.93;;;28.00;59.70;;;;;;4973408;28;20451;-78
2022/05/24 11:53:08;;;;;;;11.87;11.43;;;28.30;57.80;;;;;;4975177;28;20447;-76
2022/05/24 11:55:50;;;;;;;12.23;11.73;;;27.30;59.40;;;;;;4975298;28;20475;-77
2022/05/24 11:59:01;;;;;;;11.90;11.50;;;26.70;62.30;;;;;;4975585;28;20483;-75
2022/05/24 12:01:47;;;;;;;12.93;12.43;;;25.60;63.60;;;;;;4975749;28;20490;-77
2022/05/24 12:10:46;;;;;;;11.63;11.20;;;24.80;67.70;;;;;;4977094;28;20471;-79
2022/05/24 12:13:28;;;;;;;11.50;11.10;;;25.90;66.40;;;;;;4975496;28;20481;-78
2022/05/24 12:15:57;;;;;;;11.70;11.30;;;26.80;63.00;;;;;;4975447;28;20459;-79
2022/05/24 12:18:37;;;;;;;11.83;11.33;;;27.60;61.50;;;;;;4975147;28;20458;-78
2022/05/24 12:21:05;;;;;;;12.20;11.70;;;27.80;60.60;;;;;;4975146;28;20459;-78
2022/05/24 12:23:38;;;;;;;11.40;11.00;;;27.60;60.50;;;;;;4975424;28;20455;-77
2022/05/24 12:26:10;;;;;;;11.57;11.20;;;27.50;60.90;;;;;;4974977;28;20459;-77
2022/05/24 12:28:49;;;;;;;11.70;11.30;;;26.80;60.80;;;;;;4974407;28;20526;-76
2022/05/24 12:31:27;;;;;;;11.63;10.93;;;26.30;61.40;;;;;;4974869;28;20448;-77
2022/05/24 12:33:55;;;;;;;11.70;11.30;;;26.10;62.70;;;;;;4974874;28;20993;-79
2022/05/24 12:36:30;;;;;;;11.97;11.47;;;26.70;61.80;;;;;;4974713;28;20484;-78
2022/05/24 12:39:01;;;;;;;11.13;10.73;;;26.80;60.20;;;;;;4975225;28;20956;-78
2022/05/24 12:41:34;;;;;;;12.20;11.80;;;27.80;58.80;;;;;;4974343;28;20460;-76
2022/05/24 12:44:04;;;;;;;12.00;11.47;;;27.60;57.80;;;;;;4974700;28;20452;-77
2022/05/24 12:46:34;;;;;;;11.13;10.73;;;26.70;59.20;;;;;;4974974;28;20455;-80
2022/05/24 12:49:07;;;;;;;11.73;11.33;;;26.30;60.00;;;;;;4975241;28;20458;-79
2022/05/24 12:51:34;;;;;;;11.80;11.27;;;27.80;58.60;;;;;;4974940;28;20531;-81
2022/05/24 12:54:13;;;;;;;12.23;11.70;;;29.00;55.40;;;;;;4974592;28;20531;-76
2022/05/24 12:56:53;;;;;;;12.10;11.70;;;29.60;54.20;;;;;;4973999;28;20474;-77
2022/05/24 12:59:29;;;;;;;12.00;11.50;;;29.90;53.90;;;;;;4974001;28;20549;-74
2022/05/24 13:01:56;;;;;;;10.90;10.53;;;29.00;52.60;;;;;;4972931;28;20443;-78
2022/05/24 13:04:27;;;;;;;11.50;11.00;;;27.90;54.70;;;;;;4974413;28;20498;-76
2022/05/24 13:06:54;;;;;;;12.03;11.63;;;28.40;54.50;;;;;;4974038;28;20447;-83
2022/05/24 13:09:24;;;;;;;12.03;11.63;;;28.60;54.20;;;;;;4975213;28;20506;-77
2022/05/24 13:11:55;;;;;;;12.97;12.30;;;29.70;53.00;;;;;;4973902;28;20497;-74
2022/05/24 13:14:51;;;;;;;11.90;11.50;;;30.30;51.00;;;;;;4973579;28;20495;-75
2022/05/24 13:17:21;;;;;;;11.23;10.83;;;29.30;51.70;;;;;;4973575;28;20550;-75
2022/05/24 13:19:53;;;;;;;11.47;11.07;;;28.00;52.70;;;;;;4973624;28;20490;-75
2022/05/24 13:22:21;;;;;;;11.73;11.30;;;27.00;54.40;;;;;;4973248;28;20444;-78
2022/05/24 13:24:55;;;;;;;11.60;11.10;;;26.10;56.50;;;;;;4973233;28;20440;-79
2022/05/24 13:27:23;;;;;;;11.40;11.00;;;25.30;58.30;;;;;;4972899;28;20896;-76
2022/05/24 13:35:27;;;;;;;11.17;10.67;;;23.30;67.20;;;;;;4973545;28;20482;-76
2022/05/24 13:37:58;;;;;;;11.43;11.03;;;23.00;68.00;;;;;;4973768;28;20459;-76
2022/05/24 13:40:40;;;;;;;11.63;11.10;;;22.90;69.30;;;;;;4973832;28;20459;-76
2022/05/24 13:43:09;;;;;;;12.20;11.60;;;23.40;68.40;;;;;;4972856;28;20510;-76
2022/05/24 13:45:38;;;;;;;11.30;10.80;;;24.00;67.40;;;;;;4973148;28;20532;-74
2022/05/24 13:48:24;;;;;;;11.63;11.13;;;25.00;65.00;;;;;;4973164;28;20467;-75
2022/05/24 13:50:51;;;;;;;12.07;11.67;;;26.20;62.70;;;;;;4972867;28;20518;-75
2022/05/24 13:53:31;;;;;;;11.00;10.60;;;27.40;59.60;;;;;;4972535;28;20458;-77
2022/05/24 13:56:00;;;;;;;12.83;12.30;;;27.80;58.30;;;;;;4972657;28;20738;-77
2022/05/24 13:58:35;;;;;;;12.20;11.80;;;28.30;55.80;;;;;;4972325;28;20571;-76
2022/05/24 14:01:04;;;;;;;11.93;11.43;;;28.50;56.20;;;;;;4972604;28;21032;-78
2022/05/24 14:03:45;;;;;;;12.97;12.47;;;29.20;55.40;;;;;;4972217;28;20550;-76
2022/05/24 14:06:13;;;;;;;12.30;11.80;;;29.50;54.70;;;;;;4972388;28;20455;-77
2022/05/24 14:08:42;;;;;;;13.97;13.07;;;28.80;54.70;;;;;;4972393;28;20534;-77
2022/05/24 14:11:12;;;;;;;11.40;10.83;;;28.10;55.80;;;;;;4972654;28;21013;-76
2022/05/24 14:13:40;;;;;;;10.97;10.57;;;27.60;55.90;;;;;;4972899;28;20455;-75
2022/05/24 14:16:07;;;;;;;11.43;11.00;;;26.90;55.50;;;;;;4973006;28;20510;-74
2022/05/24 14:18:34;;;;;;;11.90;11.40;;;26.60;57.00;;;;;;4973687;28;20491;-75
2022/05/24 14:21:02;;;;;;;11.83;11.33;;;25.90;58.20;;;;;;4973031;28;20506;-76
2022/05/24 14:23:29;;;;;;;12.23;11.70;;;26.00;57.40;;;;;;4973019;28;20451;-76
2022/05/24 14:25:55;;;;;;;12.63;12.23;;;26.20;57.00;;;;;;4972529;28;21241;-76
2022/05/24 14:28:22;;;;;;;12.40;12.00;;;26.60;55.90;;;;;;4972187;28;20464;-76
2022/05/24 14:30:51;;;;;;;11.23;10.80;;;26.80;55.30;;;;;;4972342;28;20459;-78
2022/05/24 14:33:20;;;;;;;11.30;10.80;;;27.80;54.70;;;;;;4972236;28;20458;-76
2022/05/24 14:35:47;;;;;;;11.77;11.30;;;27.30;55.20;;;;;;4971895;28;20496;-76
2022/05/24 14:38:15;;;;;;;11.83;11.33;;;26.50;57.80;;;;;;4972086;28;20455;-75
2022/05/24 14:40:42;;;;;;;13.07;12.40;;;25.80;60.70;;;;;;4971836;28;20450;-75
2022/05/24 14:43:10;;;;;;;12.53;11.80;;;25.30;61.80;;;;;;4971992;28;20448;-75
2022/05/24 14:45:38;;;;;;;13.50;13.00;;;25.00;63.00;;;;;;4972024;28;20447;-75
2022/05/24 14:48:06;;;;;;;13.83;12.63;;;24.20;65.30;;;;;;4972317;28;20455;-75
2022/05/24 14:50:36;;;;;;;11.57;11.00;;;23.90;67.90;;;;;;4972156;28;20455;-75
2022/05/24 14:53:03;;;;;;;11.83;11.30;;;23.60;67.00;;;;;;4972105;28;20451;-75
2022/05/24 14:55:30;;;;;;;12.90;12.20;;;23.30;68.60;;;;;;4971535;28;20583;-75
2022/05/24 14:57:57;;;;;;;12.67;12.13;;;23.30;70.40;;;;;;4971466;28;20470;-75
2022/05/24 15:00:26;;;;;;;13.00;12.50;;;23.10;69.90;;;;;;4971388;28;20492;-74
2022/05/24 15:02:52;;;;;;;12.37;11.87;;;23.30;71.60;;;;;;4971756;28;20455;-76
2022/05/24 15:05:21;;;;;;;11.90;11.50;;;23.30;68.80;;;;;;4972084;28;20868;-74
2022/05/24 15:16:08;;;;;;;12.10;11.50;;;23.10;68.00;;;;;;4970469;28;20479;-76
2022/05/24 15:18:35;;;;;;;12.30;11.80;;;22.80;70.20;;;;;;4971666;28;20456;-77
2022/05/24 15:21:03;;;;;;;19.03;13.23;;;22.50;71.60;;;;;;4971829;28;20456;-80
2022/05/24 15:23:33;;;;;;;11.13;10.73;;;22.50;71.80;;;;;;4972315;28;20819;-76
2022/05/24 15:26:06;;;;;;;12.40;12.00;;;22.60;72.50;;;;;;4974433;28;20455;-75
2022/05/24 15:28:34;;;;;;;10.53;10.13;;;22.40;71.40;;;;;;4975293;28;20448;-74
2022/05/24 15:31:01;;;;;;;10.73;10.27;;;22.20;72.90;;;;;;4975050;28;20509;-75
2022/05/24 15:33:28;;;;;;;10.60;10.30;;;22.00;73.40;;;;;;4966875;28;20542;-75
2022/05/24 15:35:55;;;;;;;11.23;10.70;;;21.80;74.30;;;;;;4974572;28;20831;-76
2022/05/24 15:38:23;;;;;;;12.10;11.60;;;21.70;74.90;;;;;;4974728;28;20460;-75
2022/05/24 15:40:50;;;;;;;11.23;10.37;;;21.50;75.50;;;;;;4975201;28;20502;-75
2022/05/24 15:43:17;;;;;;;11.83;11.27;;;21.50;75.80;;;;;;4974432;28;20946;-74
2022/05/24 15:45:44;;;;;;;11.47;10.70;;;21.40;75.00;;;;;;4974269;28;20926;-74
2022/05/24 15:48:11;;;;;;;10.80;10.20;;;21.40;75.70;;;;;;4974225;28;20448;-74
2022/05/24 15:50:37;;;;;;;12.87;11.57;;;21.40;76.10;;;;;;4974111;28;20988;-75
2022/05/24 15:53:04;;;;;;;11.17;10.70;;;21.50;75.50;;;;;;4974339;28;20455;-75
2022/05/24 15:55:32;;;;;;;11.10;10.70;;;21.50;75.60;;;;;;4974644;28;20491;-76
2022/05/24 15:57:59;;;;;;;12.03;11.63;;;21.50;75.90;;;;;;4974429;28;20460;-74
2022/05/24 16:00:27;;;;;;;12.67;12.07;;;21.40;75.30;;;;;;4974318;28;20485;-76
2022/05/24 16:02:54;;;;;;;11.87;11.40;;;21.30;76.20;;;;;;4974770;28;20457;-73
2022/05/24 16:10:54;;;;;;;11.30;10.90;;;21.40;77.10;;;;;;4975109;28;20435;-75
2022/05/24 16:13:23;;;;;;;10.63;10.30;;;21.40;77.00;;;;;;4980846;28;20455;-80
2022/05/24 16:15:53;;;;;;;11.57;11.17;;;21.40;76.70;;;;;;4974932;28;20491;-79
2022/05/24 16:18:20;;;;;;;12.23;11.83;;;21.40;75.50;;;;;;4976511;28;20455;-79
2022/05/24 16:20:49;;;;;;;11.10;10.73;;;21.40;76.10;;;;;;4975151;28;20459;-79
2022/05/24 16:23:18;;;;;;;11.87;11.33;;;21.30;76.40;;;;;;4974903;28;20510;-79
2022/05/24 16:25:45;;;;;;;11.00;10.50;;;21.30;76.90;;;;;;4974309;28;20514;-78
2022/05/24 16:28:14;;;;;;;10.80;10.30;;;21.30;77.30;;;;;;4974321;28;20452;-79
2022/05/24 16:30:41;;;;;;;10.70;10.40;;;21.40;77.40;;;;;;4974670;28;20448;-79
2022/05/24 16:33:08;;;;;;;11.17;10.77;;;21.40;77.00;;;;;;4975078;28;20540;-79
2022/05/24 16:35:34;;;;;;;11.53;11.13;;;21.30;76.40;;;;;;4974670;28;21029;-79
2022/05/24 16:38:02;;;;;;;11.57;11.17;;;21.20;76.50;;;;;;4975577;28;20452;-79